createdAt,value
2022-12-16T00:01:20.160Z,101880.13
2022-12-16T00:03:54.941Z,101886.38
2022-12-16T00:06:26.205Z,101881.16
2022-12-16T00:08:55.044Z,101887.44
2022-12-16T00:11:23.648Z,101882.22
2022-12-16T00:13:52.178Z,101888.41
2022-12-16T00:16:22.366Z,101883.13
2022-12-16T00:18:51.918Z,101888.50
2022-12-16T00:21:21.283Z,101890.34
2022-12-16T00:23:50.070Z,101885.94
2022-12-16T00:26:18.510Z,101889.50
2022-12-16T00:28:46.891Z,101886.00
2022-12-16T00:31:15.852Z,101881.56
2022-12-16T00:33:44.230Z,101886.84
2022-12-16T00:36:12.651Z,101886.00
2022-12-16T00:38:40.969Z,101891.31
2022-12-16T00:41:10.503Z,101892.25
2022-12-16T00:43:38.881Z,101887.00
2022-12-16T00:46:07.568Z,101881.84
2022-12-16T00:48:36.122Z,101896.94
2022-12-16T00:51:04.487Z,101893.47
2022-12-16T00:53:33.154Z,101898.91
2022-12-16T00:56:10.527Z,101903.44
2022-12-16T00:58:39.255Z,101909.72
2022-12-16T01:01:10.041Z,101908.03
2022-12-16T01:03:39.950Z,101910.75
2022-12-16T01:06:19.066Z,101912.59
2022-12-16T01:08:50.686Z,101907.38
2022-12-16T01:11:21.696Z,101914.50
2022-12-16T01:13:55.132Z,101917.22
2022-12-16T01:16:24.091Z,101914.63
2022-12-16T01:18:52.637Z,101919.09
2022-12-16T01:21:21.006Z,101922.66
2022-12-16T01:23:49.901Z,101923.56
2022-12-16T01:26:19.912Z,101918.31
2022-12-16T01:28:50.496Z,101923.63
2022-12-16T01:31:20.819Z,101928.94
2022-12-16T01:33:49.366Z,101931.66
2022-12-16T01:36:18.742Z,101924.63
2022-12-16T01:38:48.722Z,101923.78
2022-12-16T01:41:21.142Z,101922.88
2022-12-16T01:43:49.416Z,101926.44
2022-12-16T01:46:26.210Z,101929.09
2022-12-16T01:49:27.670Z,101938.84
2022-12-16T01:52:01.301Z,101935.31
2022-12-16T01:54:44.662Z,101938.00
2022-12-16T01:57:23.387Z,101944.16
2022-12-16T01:59:55.201Z,101938.03
2022-12-16T02:02:25.167Z,101941.59
2022-12-16T02:05:12.016Z,101951.31
2022-12-16T02:07:40.442Z,101945.19
2022-12-16T02:10:09.610Z,101947.84
2022-12-16T02:12:44.023Z,101944.31
2022-12-16T02:15:21.442Z,101947.88
2022-12-16T02:17:58.583Z,101940.81
2022-12-16T02:20:38.886Z,101947.88
2022-12-16T02:23:43.860Z,101947.91
2022-12-16T02:26:42.263Z,101950.56
2022-12-16T02:29:40.942Z,101951.47
2022-12-16T02:32:37.614Z,101957.66
2022-12-16T02:35:12.016Z,101950.63
2022-12-16T02:37:54.734Z,101963.84
2022-12-16T02:40:37.364Z,101961.22
2022-12-16T02:43:13.777Z,101962.97
2022-12-16T02:45:43.379Z,101969.16
2022-12-16T02:48:12.821Z,101964.75
2022-12-16T02:50:53.612Z,101960.34
2022-12-16T02:53:23.641Z,101964.75
2022-12-16T02:56:04.967Z,101963.88
2022-12-16T02:59:08.432Z,101960.34
2022-12-16T03:01:38.559Z,101963.00
2022-12-16T03:04:16.209Z,101963.00
2022-12-16T03:06:49.081Z,101970.03
2022-12-16T03:09:24.601Z,101970.94
2022-12-16T03:11:55.876Z,101976.19
2022-12-16T03:14:28.966Z,101974.44
2022-12-16T03:16:58.511Z,101970.91
2022-12-16T03:19:29.085Z,101966.50
2022-12-16T03:22:10.548Z,101968.25
2022-12-16T03:24:40.492Z,101966.50
2022-12-16T03:27:23.373Z,101969.94
2022-12-16T03:30:21.306Z,101961.19
2022-12-16T03:33:09.127Z,101964.69
2022-12-16T03:35:49.422Z,101968.19
2022-12-16T03:38:19.341Z,101962.91
2022-12-16T03:40:47.697Z,101960.28
2022-12-16T03:43:17.449Z,101956.75
2022-12-16T03:45:47.277Z,101962.00
2022-12-16T03:48:17.812Z,101965.53
2022-12-16T03:50:46.197Z,101971.66
2022-12-16T03:53:14.571Z,101975.19
2022-12-16T03:55:43.001Z,101977.78
2022-12-16T03:58:11.500Z,101973.34
2022-12-16T04:00:39.968Z,101973.34
2022-12-16T04:03:08.433Z,101968.94
2022-12-16T04:05:37.321Z,101972.47
2022-12-16T04:08:06.007Z,101973.31
2022-12-16T04:10:52.790Z,101963.63
2022-12-16T04:13:39.364Z,101972.41
2022-12-16T04:16:28.070Z,101969.75
2022-12-16T04:19:14.863Z,101972.38
2022-12-16T04:22:01.901Z,101978.44
2022-12-16T04:24:32.006Z,101978.44
2022-12-16T04:27:19.214Z,101976.69
2022-12-16T04:30:06.062Z,101976.66
2022-12-16T04:32:54.324Z,101974.88
2022-12-16T04:35:41.133Z,101983.66
2022-12-16T04:38:27.856Z,101972.19
2022-12-16T04:41:14.531Z,101987.97
2022-12-16T04:44:01.466Z,101980.94
2022-12-16T04:46:48.433Z,101987.97
2022-12-16T04:49:35.487Z,101993.25
2022-12-16T04:52:22.887Z,101990.56
2022-12-16T04:55:09.776Z,101994.03
2022-12-16T04:57:56.595Z,102002.78
2022-12-16T05:00:43.696Z,102003.63
2022-12-16T05:03:31.790Z,102000.97
2022-12-16T05:06:18.566Z,102006.19
2022-12-16T05:09:05.083Z,102012.31
2022-12-16T05:11:52.006Z,102014.91
2022-12-16T05:14:38.908Z,102019.28
2022-12-16T05:17:25.365Z,102019.19
2022-12-16T05:20:11.916Z,102016.53
2022-12-16T05:22:58.921Z,102014.72
2022-12-16T05:25:45.621Z,102020.81
2022-12-16T05:28:32.507Z,102016.41
2022-12-16T05:31:19.152Z,102016.38
2022-12-16T05:34:06.201Z,102017.25
2022-12-16T05:36:52.770Z,102018.09
2022-12-16T05:39:39.096Z,102020.78
2022-12-16T05:42:25.626Z,102019.91
2022-12-16T05:45:12.206Z,102027.78
2022-12-16T05:47:59.825Z,102026.88
2022-12-16T05:50:46.538Z,102027.69
2022-12-16T05:53:33.640Z,102032.91
2022-12-16T05:56:20.636Z,102036.41
2022-12-16T05:59:07.340Z,102042.56
2022-12-16T06:01:54.417Z,102045.19
2022-12-16T06:04:40.995Z,102042.53
2022-12-16T06:07:27.594Z,102036.41
2022-12-16T06:10:13.905Z,102036.34
2022-12-16T06:13:00.550Z,102043.31
2022-12-16T06:15:47.461Z,102039.75
2022-12-16T06:18:34.242Z,102037.13
2022-12-16T06:21:21.256Z,102040.59
2022-12-16T06:24:08.290Z,102043.22
2022-12-16T06:26:55.071Z,102044.97
2022-12-16T06:29:41.563Z,102036.16
2022-12-16T06:32:28.146Z,102036.97
2022-12-16T06:35:14.860Z,102042.16
2022-12-16T06:38:01.764Z,102043.91
2022-12-16T06:40:48.267Z,102040.41
2022-12-16T06:43:35.744Z,102041.22
2022-12-16T06:46:22.938Z,102040.31
2022-12-16T06:49:09.782Z,102044.63
2022-12-16T06:51:56.642Z,102046.38
2022-12-16T06:54:43.161Z,102041.13
2022-12-16T06:57:29.845Z,102043.69
2022-12-16T07:00:16.341Z,102039.25
2022-12-16T07:03:03.201Z,102037.44
2022-12-16T07:05:50.091Z,102036.53
2022-12-16T07:08:36.597Z,102035.66
2022-12-16T07:11:23.046Z,102033.03
2022-12-16T07:14:09.615Z,102033.03
2022-12-16T07:16:56.144Z,102029.50
2022-12-16T07:19:43.031Z,102023.34
2022-12-16T07:22:29.520Z,102025.94
2022-12-16T07:25:15.886Z,102029.31
2022-12-16T07:28:08.308Z,102017.94
2022-12-16T07:30:59.053Z,102017.88
2022-12-16T07:33:45.730Z,102026.56
2022-12-16T07:36:32.654Z,102021.28
2022-12-16T07:39:19.201Z,102029.09
2022-12-16T07:42:05.702Z,102028.19
2022-12-16T07:44:52.326Z,102034.25
2022-12-16T07:47:39.126Z,102034.19
2022-12-16T07:50:26.201Z,102028.91
2022-12-16T07:53:19.641Z,102030.63
2022-12-16T07:56:06.569Z,102034.13
2022-12-16T07:58:53.285Z,102031.41
2022-12-16T08:01:42.191Z,102015.66
2022-12-16T08:04:29.125Z,102017.41
2022-12-16T08:07:15.478Z,102023.59
2022-12-16T08:10:02.021Z,102020.09
2022-12-16T08:12:48.864Z,102015.72
2022-12-16T08:15:35.556Z,102012.09
2022-12-16T08:18:22.576Z,102013.78
2022-12-16T08:21:09.128Z,102012.00
2022-12-16T08:23:56.006Z,102015.44
2022-12-16T08:26:42.769Z,102011.88
2022-12-16T08:29:46.136Z,102013.63
2022-12-16T08:32:34.076Z,102013.69
2022-12-16T08:35:21.251Z,102003.19
2022-12-16T08:38:13.695Z,102005.81
2022-12-16T08:41:02.166Z,102011.88
2022-12-16T08:43:53.930Z,102011.78
2022-12-16T08:46:41.473Z,102012.56
2022-12-16T08:49:28.464Z,101999.34
2022-12-16T08:52:15.041Z,102010.69
2022-12-16T08:55:01.772Z,102012.38
2022-12-16T08:57:48.505Z,102005.28
2022-12-16T09:00:43.527Z,102002.59
2022-12-16T09:03:30.662Z,102006.94
2022-12-16T09:06:20.487Z,102003.38
2022-12-16T09:09:07.209Z,102011.19
2022-12-16T09:11:53.743Z,102012.91
2022-12-16T09:14:40.769Z,102004.16
2022-12-16T09:17:27.463Z,102005.91
2022-12-16T09:20:14.083Z,102013.78
2022-12-16T09:23:00.921Z,102008.53
2022-12-16T09:25:47.687Z,102015.47
2022-12-16T09:28:34.408Z,102013.69
2022-12-16T09:31:21.374Z,102018.00
2022-12-16T09:34:07.922Z,102014.56
2022-12-16T09:36:54.792Z,102018.88
2022-12-16T09:39:42.568Z,102024.09
2022-12-16T09:43:09.403Z,102024.88
2022-12-16T09:46:22.626Z,102031.75
2022-12-16T09:49:54.572Z,102032.59
2022-12-16T09:52:43.050Z,102032.56
2022-12-16T09:55:51.392Z,102038.69
2022-12-16T09:58:42.287Z,102046.56
2022-12-16T10:01:32.448Z,102042.13
2022-12-16T10:04:19.407Z,102045.50
2022-12-16T10:07:12.281Z,102045.44
2022-12-16T10:10:41.450Z,102046.19
2022-12-16T10:13:52.012Z,102044.38
2022-12-16T10:17:07.220Z,102046.00
2022-12-16T10:20:15.047Z,102052.91
2022-12-16T10:23:25.104Z,102051.13
2022-12-16T10:26:19.654Z,102054.63
2022-12-16T10:29:08.742Z,102055.53
2022-12-16T10:31:56.803Z,102060.75
2022-12-16T10:34:49.743Z,102056.31
2022-12-16T10:37:44.807Z,102059.78
2022-12-16T10:40:36.966Z,102057.09
2022-12-16T10:44:02.571Z,102045.81
2022-12-16T10:46:53.826Z,102051.97
2022-12-16T10:49:41.122Z,102055.50
2022-12-16T10:52:33.143Z,102049.34
2022-12-16T10:55:32.488Z,102057.06
2022-12-16T10:58:45.759Z,102052.59
2022-12-16T11:01:47.176Z,102051.66
2022-12-16T11:04:51.492Z,102049.97
2022-12-16T11:07:52.161Z,102045.53
2022-12-16T11:10:49.291Z,102046.41
2022-12-16T11:13:44.447Z,102041.16
2022-12-16T11:16:41.211Z,102039.41
2022-12-16T11:19:42.369Z,102037.59
2022-12-16T11:22:41.603Z,102030.59
2022-12-16T11:25:40.651Z,102036.72
2022-12-16T11:28:37.936Z,102027.94
2022-12-16T11:31:35.973Z,102020.00
2022-12-16T11:34:23.596Z,102031.28
2022-12-16T11:37:11.538Z,102022.50
2022-12-16T11:40:00.007Z,102024.28
2022-12-16T11:42:51.691Z,102015.53
2022-12-16T11:45:40.572Z,102018.06
2022-12-16T11:49:01.928Z,102017.91
2022-12-16T11:52:21.117Z,102010.84
2022-12-16T11:56:04.829Z,102012.53
2022-12-16T11:59:07.322Z,102008.97
2022-12-16T12:02:06.426Z,102022.09
2022-12-16T12:04:53.126Z,102008.09
2022-12-16T12:07:46.396Z,102012.34
2022-12-16T12:10:47.687Z,102011.41
2022-12-16T12:14:22.432Z,102011.25
2022-12-16T12:17:25.856Z,102009.50
2022-12-16T12:20:35.848Z,102006.78
2022-12-16T12:23:26.893Z,102006.75
2022-12-16T12:26:47.519Z,102008.59
2022-12-16T12:29:40.119Z,102010.28
2022-12-16T12:32:33.453Z,102005.88
2022-12-16T12:35:55.823Z,102006.66
2022-12-16T12:39:00.962Z,102000.44
2022-12-16T12:41:55.209Z,102006.44
2022-12-16T12:45:00.002Z,102014.16
2022-12-16T12:47:49.285Z,102014.19
2022-12-16T12:50:55.847Z,102009.03
2022-12-16T12:54:03.527Z,102015.94
2022-12-16T12:57:09.215Z,102017.56
2022-12-16T13:00:13.734Z,102016.66
2022-12-16T13:03:35.873Z,102019.19
2022-12-16T13:06:23.685Z,102012.13
2022-12-16T13:09:10.407Z,102026.13
2022-12-16T13:11:58.562Z,102023.44
2022-12-16T13:14:58.891Z,102028.56
2022-12-16T13:17:45.616Z,102023.28
2022-12-16T13:20:53.743Z,102024.97
2022-12-16T13:24:00.971Z,102023.22
2022-12-16T13:26:50.907Z,102021.59
2022-12-16T13:29:44.332Z,102026.94
2022-12-16T13:32:46.406Z,102030.50
2022-12-16T13:35:33.132Z,102026.13
2022-12-16T13:38:37.936Z,102035.75
2022-12-16T13:41:45.921Z,102037.38
2022-12-16T13:45:01.423Z,102036.34
2022-12-16T13:47:59.862Z,102049.38
2022-12-16T13:51:18.880Z,102047.34
2022-12-16T13:54:12.967Z,102049.00
2022-12-16T13:57:06.092Z,102043.66
2022-12-16T13:59:56.956Z,102047.16
2022-12-16T14:02:59.790Z,102045.38
2022-12-16T14:05:53.781Z,102052.38
2022-12-16T14:08:44.216Z,102055.00
2022-12-16T14:12:05.281Z,102049.88
2022-12-16T14:15:08.024Z,102053.34
2022-12-16T14:18:07.686Z,102058.47
2022-12-16T14:21:15.371Z,102050.56
2022-12-16T14:24:22.517Z,102053.97
2022-12-16T14:27:10.450Z,102053.06
2022-12-16T14:29:58.542Z,102059.19
2022-12-16T14:32:54.842Z,102052.22
2022-12-16T14:35:44.826Z,102047.97
2022-12-16T14:38:47.066Z,102047.06
2022-12-16T14:41:37.445Z,102054.81
2022-12-16T14:44:35.526Z,102046.97
2022-12-16T14:47:22.701Z,102046.00
2022-12-16T14:50:12.606Z,102051.94
2022-12-16T14:53:00.005Z,102058.81
2022-12-16T14:55:50.091Z,102050.22
2022-12-16T14:58:42.574Z,102044.25
2022-12-16T15:01:38.971Z,102049.56
2022-12-16T15:04:39.026Z,102045.16
2022-12-16T15:07:32.761Z,102052.06
2022-12-16T15:10:20.490Z,102050.25
2022-12-16T15:13:09.201Z,102050.34
2022-12-16T15:16:05.767Z,102051.97
2022-12-16T15:18:58.122Z,102056.19
2022-12-16T15:21:45.138Z,102056.03
2022-12-16T15:24:38.726Z,102063.88
2022-12-16T15:27:40.005Z,102069.09
2022-12-16T15:30:51.755Z,102077.75
2022-12-16T15:33:41.740Z,102070.81
2022-12-16T15:36:44.821Z,102074.31
2022-12-16T15:39:55.967Z,102076.13
2022-12-16T15:42:49.323Z,102078.78
2022-12-16T15:45:46.572Z,102075.38
2022-12-16T15:48:46.886Z,102073.03
2022-12-16T15:51:52.494Z,102075.97
2022-12-16T15:54:42.018Z,102076.91
2022-12-16T15:57:55.382Z,102064.75
2022-12-16T16:00:47.642Z,102071.06
2022-12-16T16:03:49.349Z,102074.63
2022-12-16T16:06:44.501Z,102074.78
2022-12-16T16:09:48.001Z,102066.16
2022-12-16T16:12:37.452Z,102074.06
2022-12-16T16:15:26.971Z,102075.88
2022-12-16T16:18:23.595Z,102071.56
2022-12-16T16:21:11.225Z,102074.31
2022-12-16T16:24:17.692Z,102083.16
2022-12-16T16:27:04.399Z,102090.28
2022-12-16T16:29:51.000Z,102085.16
2022-12-16T16:32:37.761Z,102086.25
2022-12-16T16:35:24.756Z,102092.50
2022-12-16T16:38:14.201Z,102090.91
2022-12-16T16:41:05.439Z,102095.53
2022-12-16T16:43:52.027Z,102095.75
2022-12-16T16:46:50.515Z,102095.88
2022-12-16T16:49:43.843Z,102092.59
2022-12-16T16:52:50.564Z,102100.63
2022-12-16T16:55:42.065Z,102098.19
2022-12-16T16:58:40.979Z,102101.03
2022-12-16T17:01:32.514Z,102102.09
2022-12-16T17:04:19.959Z,102103.16
2022-12-16T17:07:07.051Z,102109.41
2022-12-16T17:09:53.772Z,102102.59
2022-12-16T17:12:45.286Z,102101.88
2022-12-16T17:15:44.546Z,102105.59
2022-12-16T17:18:31.537Z,102111.06
2022-12-16T17:21:18.059Z,102110.41
2022-12-16T17:24:05.125Z,102113.19
2022-12-16T17:26:54.215Z,102122.13
2022-12-16T17:29:43.131Z,102124.09
2022-12-16T17:32:30.606Z,102126.00
2022-12-16T17:35:18.249Z,102133.16
2022-12-16T17:38:19.001Z,102133.28
2022-12-16T17:41:11.847Z,102143.06
2022-12-16T17:43:58.239Z,102137.91
2022-12-16T17:46:46.110Z,102140.69
2022-12-16T17:49:32.985Z,102135.59
2022-12-16T17:52:19.525Z,102141.91
2022-12-16T17:55:06.066Z,102142.06
2022-12-16T17:57:53.088Z,102142.19
2022-12-16T18:00:40.140Z,102146.72
2022-12-16T18:03:27.013Z,102146.81
2022-12-16T18:06:17.471Z,102154.84
2022-12-16T18:09:04.645Z,102144.41
2022-12-16T18:11:59.208Z,102145.34
2022-12-16T18:14:46.260Z,102143.66
2022-12-16T18:17:32.814Z,102137.63
2022-12-16T18:20:19.521Z,102144.69
2022-12-16T18:23:06.413Z,102140.41
2022-12-16T18:26:00.592Z,102142.25
2022-12-16T18:28:47.387Z,102139.63
2022-12-16T18:31:34.006Z,102142.38
2022-12-16T18:34:20.928Z,102138.03
2022-12-16T18:37:07.715Z,102131.06
2022-12-16T18:39:54.245Z,102124.13
2022-12-16T18:42:41.128Z,102120.66
2022-12-16T18:45:28.659Z,102120.69
2022-12-16T18:48:15.412Z,102117.25
2022-12-16T18:51:01.929Z,102118.19
2022-12-16T18:53:48.648Z,102109.41
2022-12-16T18:56:35.532Z,102099.81
2022-12-16T18:59:22.096Z,102108.69
2022-12-16T19:02:08.935Z,102098.19
2022-12-16T19:04:55.689Z,102085.94
2022-12-16T19:07:42.527Z,102086.88
2022-12-16T19:10:29.460Z,102079.06
2022-12-16T19:13:17.461Z,102072.91
2022-12-16T19:16:16.724Z,102069.44
2022-12-16T19:19:03.681Z,102063.28
2022-12-16T19:24:57.286Z,102047.47
2022-12-16T19:27:44.202Z,102046.59
2022-12-16T19:30:30.981Z,102040.44
2022-12-16T19:33:17.741Z,102033.44
2022-12-16T19:36:04.266Z,102021.94
2022-12-16T19:38:52.714Z,102012.28
2022-12-16T19:41:43.201Z,102015.78
2022-12-16T19:44:29.591Z,102008.69
2022-12-16T19:47:16.116Z,102004.28
2022-12-16T19:50:02.865Z,102004.25
2022-12-16T19:52:49.394Z,101996.31
2022-12-16T19:55:36.134Z,101991.00
2022-12-16T19:58:22.962Z,101981.28
2022-12-16T20:01:09.821Z,101969.81
2022-12-16T20:03:56.895Z,101969.78
2022-12-16T20:06:43.757Z,101965.38
2022-12-16T20:09:30.412Z,101955.63
2022-12-16T20:12:17.407Z,101954.66
2022-12-16T20:15:04.179Z,101948.44
2022-12-16T20:17:51.759Z,101950.19
2022-12-16T20:20:38.746Z,101951.03
2022-12-16T20:23:25.461Z,101940.41
2022-12-16T20:26:20.496Z,101936.81
2022-12-16T20:29:07.517Z,101935.88
2022-12-16T20:31:55.894Z,101929.59
2022-12-16T20:34:43.119Z,101925.16
2022-12-16T20:37:30.027Z,101916.31
2022-12-16T20:40:16.722Z,101917.13
2022-12-16T20:43:03.291Z,101913.56
2022-12-16T20:45:50.023Z,101904.63
2022-12-16T20:48:36.881Z,101902.66
2022-12-16T20:51:26.845Z,101898.09
2022-12-16T20:54:14.649Z,101896.28
2022-12-16T20:57:01.535Z,101895.25
2022-12-16T20:59:48.252Z,101891.63
2022-12-16T21:02:35.046Z,101877.44
2022-12-16T21:05:22.339Z,101874.66
2022-12-16T21:08:08.837Z,101875.53
2022-12-16T21:10:56.470Z,101873.69
2022-12-16T21:13:43.668Z,101875.31
2022-12-16T21:16:30.371Z,101870.81
2022-12-16T21:19:34.367Z,101867.19
2022-12-16T21:22:21.041Z,101864.41
2022-12-16T21:25:07.922Z,101859.00
2022-12-16T21:27:55.490Z,101858.06
2022-12-16T21:30:42.320Z,101851.81
2022-12-16T21:33:39.605Z,101853.50
2022-12-16T21:36:26.756Z,101848.00
2022-12-16T21:39:13.153Z,101846.06
2022-12-16T21:41:59.604Z,101852.94
2022-12-16T21:44:46.136Z,101847.38
2022-12-16T21:47:32.408Z,101841.91
2022-12-16T21:50:18.955Z,101841.72
2022-12-16T21:53:07.876Z,101839.88
2022-12-16T21:56:11.449Z,101837.16
2022-12-16T21:58:58.072Z,101833.59
2022-12-16T22:01:44.906Z,101833.47
2022-12-16T22:04:31.756Z,101836.91
2022-12-16T22:07:18.516Z,101835.06
2022-12-16T22:10:05.778Z,101829.66
2022-12-16T22:12:56.302Z,101834.00
2022-12-16T22:15:43.444Z,101828.56
2022-12-16T22:18:30.220Z,101831.09
2022-12-16T22:21:22.332Z,101843.31
2022-12-16T22:24:09.334Z,101837.91
2022-12-16T22:26:56.533Z,101839.69
2022-12-16T22:29:43.238Z,101840.53
2022-12-16T22:32:29.801Z,101830.81
2022-12-16T22:35:16.407Z,101833.50
2022-12-16T22:38:03.347Z,101831.78
2022-12-16T22:40:49.840Z,101826.50
2022-12-16T22:43:36.591Z,101830.13
2022-12-16T22:46:23.929Z,101823.94
2022-12-16T22:49:10.456Z,101824.75
2022-12-16T22:51:57.036Z,101819.38
2022-12-16T22:54:43.601Z,101820.22
2022-12-16T22:57:30.135Z,101822.88
2022-12-16T23:00:16.698Z,101819.38
2022-12-16T23:03:03.527Z,101817.72
2022-12-16T23:05:50.175Z,101814.31
2022-12-16T23:08:36.811Z,101821.63
2022-12-16T23:11:23.306Z,101815.63
2022-12-16T23:14:09.953Z,101823.75
2022-12-16T23:16:56.600Z,101823.75
2022-12-16T23:19:43.581Z,101821.06
2022-12-16T23:22:30.034Z,101820.34
2022-12-16T23:25:16.565Z,101820.47
2022-12-16T23:28:03.608Z,101821.50
2022-12-16T23:30:50.540Z,101818.91
2022-12-16T23:33:37.554Z,101821.59
2022-12-16T23:36:25.044Z,101827.84
2022-12-16T23:39:12.098Z,101828.88
2022-12-16T23:41:59.127Z,101832.56
2022-12-16T23:44:46.991Z,101824.63
2022-12-16T23:47:35.125Z,101829.00
2022-12-16T23:50:21.701Z,101828.03
2022-12-16T23:53:08.882Z,101821.00
2022-12-16T23:55:56.410Z,101826.38
2022-12-16T23:58:43.097Z,101818.44
